| time (UTC) | temp C | wind direction | speed KPH | gust KPH | rain 1hr cm | rain 24hr cm | rain mn cm | humidity % | barometer mb |
| 20260509211519 | 33 | 103 | 0.0 | 3.2 | 0.00 | 0.00 | 0.00 | 35 | 1008.4 |
| 20260509210559 | 33 | 80 | 1.6 | 8.0 | 0.00 | 0.00 | 0.00 | 37 | 1008.5 |
| 20260509205519 | 34 | 62 | 0.0 | 4.8 | 0.00 | 0.00 | 0.00 | 36 | 1008.6 |
| 20260509204539 | 33 | 96 | 1.6 | 6.4 | 0.00 | 0.00 | 0.00 | 38 | 1008.8 |
| 20260509203519 | 33 | 154 | 1.6 | 8.0 | 0.00 | 0.00 | 0.00 | 38 | 1009.0 |
| 20260509202519 | 33 | 36 | 1.6 | 8.0 | 0.00 | 0.03 | 0.00 | 39 | 1009.1 |
| 20260509201518 | 33 | 50 | 1.6 | 6.4 | 0.00 | 0.03 | 0.00 | 39 | 1009.2 |
| 20260509200539 | 32 | 220 | 0.0 | 8.0 | 0.00 | 0.10 | 0.00 | 40 | 1009.3 |
| 20260509195519 | 32 | 264 | 1.6 | 4.8 | 0.00 | 0.10 | 0.00 | 39 | 1009.3 |
| 20260509194518 | 32 | 65 | 1.6 | 6.4 | 0.00 | 0.10 | 0.00 | 40 | 1009.4 |
| 20260509193515 | 31 | 232 | 1.6 | 6.4 | 0.00 | 0.10 | 0.00 | 43 | 1009.5 |
| 20260509192519 | 31 | 274 | 3.2 | 11.3 | 0.00 | 0.10 | 0.00 | 44 | 1009.6 |
| 20260509191539 | 31 | 282 | 1.6 | 6.4 | 0.00 | 0.10 | 0.00 | 44 | 1009.6 |
| 20260509190518 | 30 | 214 | 3.2 | 8.0 | 0.00 | 0.10 | 0.00 | 44 | 1009.7 |
| 20260509185518 | 31 | 278 | 3.2 | 8.0 | 0.00 | 0.10 | 0.00 | 45 | 1009.9 |
| 20260509184519 | 31 | 258 | 4.8 | 9.7 | 0.00 | 0.10 | 0.00 | 45 | 1009.9 |
| 20260509183516 | 31 | 256 | 1.6 | 9.7 | 0.00 | 0.10 | 0.00 | 44 | 1009.9 |
| 20260509182516 | 31 | 278 | 1.6 | 8.0 | 0.00 | 0.10 | 0.00 | 44 | 1010.1 |
| 20260509181517 | 30 | 271 | 3.2 | 8.0 | 0.00 | 0.10 | 0.00 | 45 | 1010.2 |
| 20260509180517 | 30 | 266 | 3.2 | 11.3 | 0.00 | 0.10 | 0.00 | 45 | 1010.3 |
| 20260509175517 | 30 | 253 | 3.2 | 8.0 | 0.00 | 0.10 | 0.00 | 46 | 1010.3 |
| 20260509174537 | 31 | 261 | 3.2 | 8.0 | 0.00 | 0.10 | 0.00 | 45 | 1010.4 |
| 20260509173517 | 30 | 104 | 1.6 | 8.0 | 0.00 | 0.10 | 0.00 | 45 | 1010.5 |
| 20260509172517 | 30 | 275 | 1.6 | 8.0 | 0.00 | 0.10 | 0.00 | 48 | 1010.5 |
| 20260509171518 | 30 | 270 | 1.6 | 8.0 | 0.00 | 0.10 | 0.00 | 47 | 1010.6 |
| 20260509170518 | 29 | 274 | 1.6 | 6.4 | 0.00 | 0.10 | 0.00 | 48 | 1010.8 |
| 20260509165538 | 29 | 311 | 3.2 | 9.7 | 0.00 | 0.10 | 0.00 | 49 | 1010.8 |
| 20260509164539 | 28 | 333 | 3.2 | 9.7 | 0.00 | 0.10 | 0.00 | 49 | 1010.9 |
| 20260509163519 | 28 | 290 | 1.6 | 9.7 | 0.00 | 0.10 | 0.00 | 51 | 1010.9 |
| 20260509162516 | 28 | 268 | 1.6 | 8.0 | 0.00 | 0.10 | 0.00 | 52 | 1010.9 |
| 20260509161519 | 28 | 284 | 1.6 | 9.7 | 0.00 | 0.10 | 0.00 | 53 | 1010.8 |
| 20260509160516 | 28 | 329 | 1.6 | 4.8 | 0.00 | 0.10 | 0.00 | 52 | 1010.9 |
| 20260509155516 | 28 | 282 | 3.2 | 14.5 | 0.00 | 0.10 | 0.00 | 53 | 1010.8 |
| 20260509154516 | 27 | 218 | 1.6 | 4.8 | 0.00 | 0.10 | 0.00 | 55 | 1010.7 |
| 20260509153516 | 27 | 314 | 1.6 | 11.3 | 0.00 | 0.10 | 0.00 | 54 | 1010.7 |
| 20260509152516 | 27 | 344 | 1.6 | 6.4 | 0.00 | 0.10 | 0.00 | 54 | 1010.6 |
| 20260509151516 | 26 | 297 | 1.6 | 4.8 | 0.00 | 0.10 | 0.00 | 56 | 1010.6 |
| 20260509150516 | 26 | 286 | 3.2 | 11.3 | 0.00 | 0.10 | 0.00 | 57 | 1010.7 |
| 20260509145537 | 26 | 300 | 1.6 | 6.4 | 0.00 | 0.10 | 0.00 | 60 | 1010.8 |
| 20260509144517 | 26 | 310 | 1.6 | 8.0 | 0.00 | 0.10 | 0.00 | 64 | 1010.8 |
| 20260509143517 | 25 | 346 | 1.6 | 6.4 | 0.00 | 0.10 | 0.00 | 67 | 1010.9 |
| 20260509142517 | 25 | 308 | 1.6 | 4.8 | 0.00 | 0.10 | 0.00 | 69 | 1010.9 |
| 20260509141518 | 25 | 327 | 1.6 | 4.8 | 0.00 | 0.10 | 0.00 | 70 | 1011.0 |
| 20260509140518 | 24 | 274 | 1.6 | 6.4 | 0.00 | 0.10 | 0.00 | 74 | 1010.9 |
| 20260509135518 | 23 | 297 | 1.6 | 4.8 | 0.00 | 0.10 | 0.00 | 75 | 1010.8 |
| 20260509134518 | 23 | 281 | 0.0 | 4.8 | 0.00 | 0.10 | 0.00 | 78 | 1010.7 |
| 20260509133518 | 22 | 316 | 1.6 | 6.4 | 0.00 | 0.10 | 0.00 | 79 | 1010.8 |
| 20260509132518 | 22 | 298 | 1.6 | 6.4 | 0.00 | 0.10 | 0.00 | 79 | 1010.6 |
| 20260509131516 | 22 | 339 | 1.6 | 4.8 | 0.00 | 0.10 | 0.00 | 80 | 1010.6 |
| 20260509130515 | 21 | 339 | 0.0 | 3.2 | 0.00 | 0.10 | 0.00 | 82 | 1010.6 |
| 20260509125516 | 21 | 277 | 1.6 | 4.8 | 0.00 | 0.10 | 0.00 | 84 | 1010.7 |
| 20260509124537 | 20 | 270 | 1.6 | 8.0 | 0.00 | 0.10 | 0.00 | 85 | 1010.6 |
| 20260509123516 | 20 | 336 | 1.6 | 9.7 | 0.00 | 0.10 | 0.00 | 86 | 1010.6 |
| 20260509122517 | 20 | 20 | 1.6 | 4.8 | 0.00 | 0.10 | 0.00 | 86 | 1010.6 |
| 20260509121517 | 20 | 255 | 1.6 | 4.8 | 0.00 | 0.10 | 0.00 | 88 | 1010.6 |
| 20260509120517 | 20 | 282 | 1.6 | 9.7 | 0.00 | 0.10 | 0.00 | 90 | 1010.5 |
| 20260509115517 | 20 | 239 | 1.6 | 8.0 | 0.00 | 0.10 | 0.00 | 89 | 1010.4 |
| 20260509114517 | 20 | 159 | 0.0 | 1.6 | 0.00 | 0.10 | 0.00 | 88 | 1010.3 |
| 20260509113518 | 21 | 53 | 0.0 | 1.6 | 0.00 | 0.10 | 0.00 | 87 | 1010.2 |
| 20260509112518 | 21 | 224 | 3.2 | 3.2 | 0.00 | 0.10 | 0.00 | 86 | 1010.0 |
| 20260509111518 | 21 | 223 | 3.2 | 4.8 | 0.00 | 0.10 | 0.00 | 85 | 1009.9 |
| 20260509110518 | 22 | 222 | 3.2 | 6.4 | 0.00 | 0.10 | 0.00 | 84 | 1009.8 |
| 20260509105516 | 22 | 225 | 3.2 | 4.8 | 0.00 | 0.10 | 0.00 | 83 | 1009.7 |
| 20260509104516 | 22 | 223 | 3.2 | 6.4 | 0.00 | 0.10 | 0.00 | 82 | 1009.6 |
| 20260509103516 | 22 | 46 | 1.6 | 1.6 | 0.00 | 0.10 | 0.00 | 82 | 1009.7 |
| 20260509102516 | 22 | 46 | 1.6 | 1.6 | 0.00 | 0.10 | 0.00 | 85 | 1009.6 |
| 20260509101516 | 22 | 46 | 1.6 | 3.2 | 0.00 | 0.10 | 0.00 | 88 | 1009.6 |
| 20260509100516 | 21 | 49 | 1.6 | 3.2 | 0.00 | 0.10 | 0.00 | 89 | 1009.6 |
| 20260509095516 | 21 | 203 | 4.8 | 12.9 | 0.00 | 0.10 | 0.00 | 90 | 1009.2 |
| 20260509094516 | 21 | 221 | 6.4 | 16.1 | 0.00 | 0.10 | 0.00 | 90 | 1007.6 |
| 20260509093517 | 21 | 221 | 8.0 | 16.1 | 0.00 | 0.10 | 0.00 | 90 | 1007.2 |
| 20260509092517 | 21 | 222 | 6.4 | 11.3 | 0.00 | 0.10 | 0.00 | 90 | 1006.9 |
| 20260509091537 | 21 | 221 | 9.7 | 14.5 | 0.00 | 0.10 | 0.00 | 90 | 1007.0 |
| 20260509090517 | 21 | 222 | 8.0 | 14.5 | 0.00 | 0.10 | 0.00 | 90 | 1007.2 |
| 20260509085517 | 21 | 222 | 9.7 | 17.7 | 0.00 | 0.10 | 0.00 | 90 | 1007.3 |
| 20260509084517 | 21 | 223 | 11.3 | 16.1 | 0.00 | 0.10 | 0.00 | 90 | 1007.4 |
| 20260509083518 | 21 | 221 | 9.7 | 17.7 | 0.00 | 0.10 | 0.00 | 91 | 1007.4 |
| 20260509082518 | 21 | 218 | 4.8 | 11.3 | 0.00 | 0.10 | 0.00 | 92 | 1008.1 |
| 20260509081518 | 21 | 49 | 3.2 | 4.8 | 0.00 | 0.10 | 0.00 | 91 | 1008.7 |
| 20260509080518 | 21 | 63 | 3.2 | 6.4 | 0.00 | 0.10 | 0.00 | 91 | 1009.1 |
| 20260509075616 | 21 | 221 | 3.2 | 6.4 | 0.00 | 0.10 | 0.00 | 90 | 1009.7 |
| 20260509074516 | 21 | 221 | 4.8 | 8.0 | 0.00 | 0.10 | 0.00 | 89 | 1010.3 |
| 20260509073516 | 21 | 191 | 3.2 | 6.4 | 0.00 | 0.10 | 0.00 | 89 | 1010.6 |
| 20260509072556 | 21 | 54 | 1.6 | 3.2 | 0.00 | 0.10 | 0.00 | 89 | 1011.1 |
| 20260509071617 | 21 | 49 | 1.6 | 3.2 | 0.00 | 0.10 | 0.00 | 89 | 1011.5 |
| 20260509070536 | 21 | 50 | 1.6 | 3.2 | 0.00 | 0.10 | 0.00 | 91 | 1011.8 |
| 20260509065557 | 21 | 46 | 1.6 | 1.6 | 0.00 | 0.10 | 0.00 | 91 | 1011.7 |
| 20260509064537 | 21 | 45 | 1.6 | 1.6 | 0.00 | 0.10 | 0.00 | 92 | 1011.6 |
| 20260509063517 | 21 | 45 | 1.6 | 1.6 | 0.00 | 0.10 | 0.00 | 91 | 1011.4 |
| 20260509062517 | 21 | 49 | 1.6 | 1.6 | 0.00 | 0.10 | 0.00 | 92 | 1011.5 |
| 20260509061517 | 21 | 47 | 1.6 | 1.6 | 0.00 | 0.10 | 0.00 | 92 | 1011.6 |
| 20260509060517 | 21 | 46 | 1.6 | 3.2 | 0.00 | 0.10 | 0.00 | 91 | 1011.4 |
| 20260509055517 | 21 | 47 | 1.6 | 1.6 | 0.00 | 0.10 | 0.00 | 91 | 1011.6 |
| 20260509054518 | 21 | 47 | 1.6 | 1.6 | 0.00 | 0.10 | 0.00 | 91 | 1011.6 |
| 20260509053518 | 21 | 47 | 1.6 | 1.6 | 0.00 | 0.10 | 0.00 | 90 | 1011.5 |
| 20260509052518 | 21 | 46 | 1.6 | 1.6 | 0.00 | 0.10 | 0.00 | 90 | 1010.7 |
| 20260509051518 | 21 | 47 | 1.6 | 1.6 | 0.00 | 0.10 | 0.00 | 89 | 1010.7 |
| 20260509050535 | 21 | 223 | 1.6 | 3.2 | 0.00 | 0.10 | 0.00 | 89 | 1010.6 |
| 20260509045536 | 21 | 178 | 1.6 | 4.8 | 0.00 | 0.10 | 0.10 | 88 | 1010.5 |
| 20260509044516 | 21 | 223 | 1.6 | 3.2 | 0.00 | 0.10 | 0.10 | 88 | 1010.6 |
| 20260509043516 | 22 | 225 | 1.6 | 3.2 | 0.00 | 0.10 | 0.10 | 87 | 1010.7 |
| 20260509042516 | 22 | 223 | 1.6 | 1.6 | 0.00 | 0.10 | 0.10 | 86 | 1010.8 |
| 20260509041516 | 22 | 46 | 0.0 | 1.6 | 0.00 | 0.10 | 0.10 | 85 | 1011.0 |
| 20260509040516 | 22 | 46 | 1.6 | 1.6 | 0.00 | 0.10 | 0.10 | 85 | 1010.9 |
| 20260509035517 | 22 | 46 | 1.6 | 3.2 | 0.00 | 0.10 | 0.10 | 85 | 1010.7 |
| 20260509034517 | 22 | 140 | 1.6 | 4.8 | 0.00 | 0.10 | 0.10 | 84 | 1010.2 |
| 20260509033517 | 22 | 219 | 3.2 | 6.4 | 0.00 | 0.10 | 0.10 | 84 | 1010.2 |
| 20260509032517 | 22 | 173 | 1.6 | 6.4 | 0.00 | 0.10 | 0.10 | 83 | 1009.9 |
| 20260509031517 | 22 | 215 | 3.2 | 6.4 | 0.00 | 0.10 | 0.10 | 82 | 1009.7 |
| 20260509030517 | 22 | 209 | 3.2 | 4.8 | 0.00 | 0.10 | 0.10 | 82 | 1009.8 |
| 20260509025518 | 22 | 142 | 1.6 | 3.2 | 0.00 | 0.10 | 0.10 | 82 | 1009.5 |
| 20260509024517 | 22 | 154 | 1.6 | 6.4 | 0.00 | 0.10 | 0.10 | 82 | 1009.1 |
| 20260509023518 | 23 | 212 | 3.2 | 6.4 | 0.00 | 0.10 | 0.10 | 81 | 1009.0 |
| 20260509022538 | 23 | 214 | 1.6 | 3.2 | 0.00 | 0.10 | 0.10 | 81 | 1009.2 |
| 20260509021518 | 23 | 216 | 1.6 | 4.8 | 0.00 | 0.10 | 0.10 | 81 | 1009.2 |
| 20260509020515 | 23 | 159 | 1.6 | 1.6 | 0.00 | 0.10 | 0.10 | 80 | 1009.2 |
| 20260509015516 | 23 | 49 | 1.6 | 1.6 | 0.00 | 0.10 | 0.10 | 80 | 1009.3 |
| 20260509014536 | 23 | 49 | 1.6 | 1.6 | 0.00 | 0.10 | 0.10 | 80 | 1009.3 |
| 20260509013516 | 23 | 51 | 1.6 | 1.6 | 0.00 | 0.10 | 0.10 | 79 | 1009.1 |
| 20260509012516 | 23 | 46 | 1.6 | 1.6 | 0.00 | 0.10 | 0.10 | 79 | 1009.1 |
| 20260509011517 | 23 | 47 | 1.6 | 1.6 | 0.00 | 0.10 | 0.10 | 79 | 1008.9 |
| 20260509010517 | 23 | 222 | 1.6 | 3.2 | 0.00 | 0.10 | 0.10 | 79 | 1008.8 |
| 20260509005537 | 23 | 222 | 1.6 | 3.2 | 0.00 | 0.10 | 0.10 | 79 | 1008.6 |
| 20260509004517 | 23 | 222 | 3.2 | 4.8 | 0.00 | 0.10 | 0.10 | 78 | 1008.5 |
| 20260509003538 | 23 | 138 | 1.6 | 6.4 | 0.00 | 0.10 | 0.10 | 78 | 1008.5 |
| 20260509002517 | 23 | 50 | 1.6 | 4.8 | 0.00 | 0.10 | 0.10 | 77 | 1008.5 |
| 20260509001518 | 23 | 221 | 3.2 | 6.4 | 0.00 | 0.10 | 0.10 | 77 | 1008.6 |
| 20260509000518 | 23 | 219 | 3.2 | 8.0 | 0.00 | 0.10 | 0.10 | 76 | 1008.7 |
| 20260508235518 | 23 | 199 | 1.6 | 11.3 | 0.00 | 0.10 | 0.10 | 76 | 1008.8 |
| 20260508234518 | 23 | 214 | 1.6 | 14.5 | 0.00 | 0.10 | 0.10 | 76 | 1008.8 |
| 20260508233515 | 23 | 217 | 3.2 | 9.7 | 0.00 | 0.10 | 0.10 | 75 | 1008.8 |
| 20260508232556 | 23 | 221 | 3.2 | 9.7 | 0.00 | 0.10 | 0.10 | 75 | 1008.8 |
| 20260508231516 | 24 | 219 | 3.2 | 8.0 | 0.00 | 0.10 | 0.10 | 73 | 1008.8 |
| 20260508230516 | 24 | 124 | 1.6 | 6.4 | 0.00 | 0.10 | 0.10 | 72 | 1008.7 |
| 20260508225516 | 23 | 224 | 3.2 | 9.7 | 0.00 | 0.10 | 0.10 | 74 | 1008.7 |
| 20260508224537 | 23 | 213 | 3.2 | 9.7 | 0.00 | 0.10 | 0.10 | 73 | 1008.7 |
| 20260508223516 | 23 | 207 | 3.2 | 11.3 | 0.00 | 0.10 | 0.10 | 73 | 1008.7 |
| 20260508222517 | 23 | 227 | 3.2 | 11.3 | 0.00 | 0.10 | 0.10 | 74 | 1008.8 |
| 20260508221517 | 23 | 189 | 3.2 | 8.0 | 0.00 | 0.10 | 0.10 | 72 | 1008.9 |
| 20260508220516 | 23 | 230 | 3.2 | 8.0 | 0.00 | 0.10 | 0.10 | 74 | 1009.0 |
| 20260508215557 | 22 | 226 | 3.2 | 8.0 | 0.00 | 0.10 | 0.10 | 73 | 1009.1 |
| 20260508214538 | 22 | 161 | 3.2 | 8.0 | 0.00 | 0.10 | 0.10 | 74 | 1009.3 |
| 20260508213517 | 22 | 218 | 3.2 | 11.3 | 0.00 | 0.10 | 0.10 | 76 | 1009.5 |
| 20260508212517 | 21 | 202 | 1.6 | 8.0 | 0.03 | 0.10 | 0.10 | 79 | 1009.6 |